createdAt,value
2022-10-03T00:02:39.705Z,10.60
2022-10-03T00:05:25.419Z,10.60
2022-10-03T00:08:10.289Z,10.80
2022-10-03T00:11:03.177Z,10.70
2022-10-03T00:13:57.437Z,10.60
2022-10-03T00:16:36.708Z,10.60
2022-10-03T00:19:41.020Z,10.50
2022-10-03T00:22:46.335Z,10.50
2022-10-03T00:25:43.462Z,10.50
2022-10-03T00:28:51.159Z,10.50
2022-10-03T00:31:25.253Z,10.40
2022-10-03T00:34:23.806Z,10.40
2022-10-03T00:37:08.657Z,10.40
2022-10-03T00:40:04.998Z,10.40
2022-10-03T00:42:46.711Z,10.40
2022-10-03T00:45:42.692Z,10.40
2022-10-03T00:48:30.505Z,10.40
2022-10-03T00:51:03.599Z,10.30
2022-10-03T00:53:47.633Z,10.30
2022-10-03T00:56:24.568Z,10.30
2022-10-03T00:59:48.189Z,10.30
2022-10-03T01:02:26.943Z,10.30
2022-10-03T01:05:03.735Z,10.30
2022-10-03T01:07:48.159Z,10.30
2022-10-03T01:10:36.493Z,10.30
2022-10-03T01:15:53.946Z,10.20
2022-10-03T01:18:48.691Z,10.20
2022-10-03T01:21:37.330Z,10.20
2022-10-03T01:24:07.284Z,10.20
2022-10-03T01:26:53.085Z,10.20
2022-10-03T01:30:09.666Z,10.20
2022-10-03T01:32:53.016Z,10.20
2022-10-03T01:35:44.676Z,10.10
2022-10-03T01:38:42.411Z,10.20
2022-10-03T01:41:40.650Z,10.10
2022-10-03T01:44:26.840Z,10.10
2022-10-03T01:47:20.863Z,10.10
2022-10-03T01:50:19.707Z,10.10
2022-10-03T01:53:00.236Z,10.10
2022-10-03T01:55:54.095Z,10.10
2022-10-03T01:58:47.038Z,10.10
2022-10-03T02:01:29.321Z,10.00
2022-10-03T02:04:04.533Z,10.00
2022-10-03T02:06:49.891Z,10.00
2022-10-03T02:09:33.731Z,10.00
2022-10-03T02:12:35.243Z,10.00
2022-10-03T02:15:16.647Z,9.90
2022-10-03T02:18:05.505Z,10.10
2022-10-03T02:21:10.912Z,10.00
2022-10-03T02:23:43.953Z,10.00
2022-10-03T02:26:10.704Z,9.90
2022-10-03T02:29:00.241Z,9.90
2022-10-03T02:31:52.653Z,9.90
2022-10-03T02:34:48.383Z,9.80
2022-10-03T02:37:27.475Z,9.90
2022-10-03T02:40:06.898Z,9.90
2022-10-03T02:43:01.729Z,9.80
2022-10-03T02:45:53.063Z,9.80
2022-10-03T02:48:38.347Z,9.80
2022-10-03T02:51:38.827Z,9.70
2022-10-03T02:54:17.693Z,9.70
2022-10-03T02:57:05.289Z,9.70
2022-10-03T03:00:07.079Z,9.60
2022-10-03T03:03:01.893Z,9.60
2022-10-03T03:05:59.549Z,9.60
2022-10-03T03:08:48.057Z,9.60
2022-10-03T03:11:18.836Z,9.50
2022-10-03T03:14:18.957Z,9.50
2022-10-03T03:17:00.704Z,9.50
2022-10-03T03:19:36.503Z,9.50
2022-10-03T03:22:25.981Z,9.40
2022-10-03T03:25:23.963Z,9.40
2022-10-03T03:28:24.601Z,9.40
2022-10-03T03:31:24.114Z,9.30
2022-10-03T03:33:57.361Z,9.30
2022-10-03T03:36:55.797Z,9.30
2022-10-03T03:39:50.302Z,9.30
2022-10-03T03:42:42.721Z,9.30
2022-10-03T03:45:19.436Z,9.30
2022-10-03T03:48:26.181Z,9.30
2022-10-03T03:51:15.283Z,9.30
2022-10-03T03:53:46.006Z,9.20
2022-10-03T03:56:49.302Z,9.20
2022-10-03T03:59:44.002Z,9.20
2022-10-03T04:02:18.521Z,9.20
2022-10-03T04:05:23.740Z,9.10
2022-10-03T04:08:21.206Z,9.10
2022-10-03T04:11:11.976Z,9.10
2022-10-03T04:14:06.114Z,9.00
2022-10-03T04:17:26.457Z,9.10
2022-10-03T04:20:02.159Z,9.00
2022-10-03T04:22:38.833Z,9.10
2022-10-03T04:25:32.040Z,9.10
2022-10-03T04:28:10.900Z,9.10
2022-10-03T04:30:55.353Z,9.10
2022-10-03T04:33:31.847Z,9.10
2022-10-03T04:36:17.347Z,9.10
2022-10-03T04:38:59.535Z,9.10
2022-10-03T04:41:42.752Z,9.10
2022-10-03T04:44:26.888Z,9.20
2022-10-03T04:47:15.547Z,9.10
2022-10-03T04:49:56.645Z,9.10
2022-10-03T04:52:42.015Z,9.10
2022-10-03T04:55:45.967Z,9.10
2022-10-03T04:58:37.798Z,9.10
2022-10-03T05:01:40.615Z,9.10
2022-10-03T05:04:30.693Z,9.00
2022-10-03T05:07:12.014Z,9.00
2022-10-03T05:10:20.597Z,9.10
2022-10-03T05:13:15.514Z,9.00
2022-10-03T05:15:54.422Z,9.00
2022-10-03T05:18:35.249Z,8.90
2022-10-03T05:21:20.441Z,8.90
2022-10-03T05:24:04.870Z,9.00
2022-10-03T05:26:44.964Z,8.90
2022-10-03T05:29:17.916Z,8.90
2022-10-03T05:32:13.519Z,8.80
2022-10-03T05:34:51.394Z,8.90
2022-10-03T05:37:21.136Z,9.20
2022-10-03T05:40:00.407Z,8.90
2022-10-03T05:42:37.950Z,8.90
2022-10-03T05:45:29.578Z,8.90
2022-10-03T05:48:23.932Z,9.00
2022-10-03T05:51:06.958Z,9.00
2022-10-03T05:53:45.619Z,9.00
2022-10-03T05:56:31.825Z,9.00
2022-10-03T05:59:28.923Z,9.00
2022-10-03T06:02:00.101Z,9.10
2022-10-03T06:04:34.206Z,9.10
2022-10-03T06:07:09.578Z,9.10
2022-10-03T06:09:54.988Z,9.10
2022-10-03T06:12:44.043Z,9.10
2022-10-03T06:15:29.663Z,9.20
2022-10-03T06:18:17.845Z,9.20
2022-10-03T06:21:29.470Z,9.20
2022-10-03T06:24:11.192Z,9.30
2022-10-03T06:26:43.873Z,9.30
2022-10-03T06:29:41.386Z,9.30
2022-10-03T06:32:10.919Z,9.40
2022-10-03T06:35:13.560Z,9.40
2022-10-03T06:38:18.050Z,9.50
2022-10-03T06:40:53.581Z,9.60
2022-10-03T06:43:30.403Z,9.90
2022-10-03T06:46:00.227Z,10.50
2022-10-03T06:51:32.024Z,11.40
2022-10-03T06:54:20.868Z,12.00
2022-10-03T06:57:03.155Z,12.30
2022-10-03T06:59:46.982Z,12.50
2022-10-03T07:02:35.830Z,12.60
2022-10-03T07:05:41.387Z,12.50
2022-10-03T07:08:59.834Z,12.40
2022-10-03T07:11:58.111Z,12.40
2022-10-03T07:14:56.770Z,12.30
2022-10-03T07:17:50.183Z,12.30
2022-10-03T07:20:32.712Z,12.30
2022-10-03T07:23:40.365Z,12.20
2022-10-03T07:26:40.772Z,12.30
2022-10-03T07:29:18.600Z,12.40
2022-10-03T07:32:17.735Z,12.40
2022-10-03T07:35:14.749Z,12.40
2022-10-03T07:38:52.339Z,12.40
2022-10-03T07:42:00.879Z,12.50
2022-10-03T07:44:59.597Z,12.50
2022-10-03T07:47:53.176Z,12.70
2022-10-03T07:53:31.939Z,12.70
2022-10-03T07:56:20.132Z,12.80
2022-10-03T07:59:24.892Z,12.90
2022-10-03T08:02:09.026Z,12.90
2022-10-03T08:04:51.043Z,13.00
2022-10-03T08:07:38.989Z,13.10
2022-10-03T08:10:23.439Z,13.20
2022-10-03T08:13:25.524Z,13.40
2022-10-03T08:16:02.999Z,13.50
2022-10-03T08:21:37.842Z,13.90
2022-10-03T08:24:32.341Z,14.10
2022-10-03T08:26:59.017Z,14.30
2022-10-03T08:29:51.875Z,14.50
2022-10-03T08:32:50.542Z,14.70
2022-10-03T08:35:29.174Z,14.90
2022-10-03T08:37:58.814Z,15.10
2022-10-03T08:40:56.689Z,15.30
2022-10-03T08:44:00.869Z,15.50
2022-10-03T08:46:43.333Z,15.60
2022-10-03T08:49:35.497Z,15.70
2022-10-03T08:52:25.846Z,16.00
2022-10-03T08:55:23.519Z,16.30
2022-10-03T08:58:31.876Z,16.60
2022-10-03T09:01:40.835Z,17.10
2022-10-03T09:04:39.361Z,17.60
2022-10-03T09:07:44.760Z,18.00
2022-10-03T09:10:33.025Z,18.50
2022-10-03T09:13:17.908Z,18.80
2022-10-03T09:15:57.097Z,19.10
2022-10-03T09:18:48.558Z,19.20
2022-10-03T09:21:41.000Z,19.30
2022-10-03T09:24:48.960Z,19.40
2022-10-03T09:27:45.115Z,19.40
2022-10-03T09:30:21.281Z,19.40
2022-10-03T09:32:56.990Z,19.40
2022-10-03T09:35:54.204Z,19.40
2022-10-03T09:38:34.729Z,19.50
2022-10-03T09:41:19.987Z,19.40
2022-10-03T09:44:14.694Z,19.30
2022-10-03T09:47:15.374Z,19.20
2022-10-03T09:50:00.960Z,19.20
2022-10-03T09:53:13.407Z,19.00
2022-10-03T09:56:01.665Z,19.00
2022-10-03T09:58:41.021Z,18.90
2022-10-03T10:01:19.409Z,18.70
2022-10-03T10:03:46.215Z,18.70
2022-10-03T10:06:31.116Z,18.60
2022-10-03T10:09:19.024Z,18.40
2022-10-03T10:11:57.907Z,18.30
2022-10-03T10:14:36.772Z,18.20
2022-10-03T10:17:26.333Z,18.10
2022-10-03T10:20:24.647Z,18.10
2022-10-03T10:23:15.704Z,18.00
2022-10-03T10:26:12.719Z,18.00
2022-10-03T10:29:11.560Z,18.10
2022-10-03T10:32:05.065Z,18.10
2022-10-03T10:34:47.029Z,18.20
2022-10-03T10:37:55.049Z,18.30
2022-10-03T10:40:54.963Z,18.40
2022-10-03T10:43:54.920Z,18.40
2022-10-03T10:46:46.949Z,18.50
2022-10-03T10:50:07.460Z,18.60
2022-10-03T10:52:45.902Z,18.70
2022-10-03T10:55:52.992Z,18.70
2022-10-03T10:58:39.214Z,18.80
2022-10-03T11:01:56.353Z,18.90
2022-10-03T11:04:41.866Z,19.10
2022-10-03T11:07:35.537Z,19.20
2022-10-03T11:10:30.344Z,19.30
2022-10-03T11:13:25.152Z,19.30
2022-10-03T11:16:35.396Z,19.30
2022-10-03T11:19:34.739Z,19.30
2022-10-03T11:22:39.158Z,19.30
2022-10-03T11:26:01.646Z,19.20
2022-10-03T11:29:08.828Z,19.20
2022-10-03T11:31:41.808Z,19.20
2022-10-03T11:34:40.822Z,19.30
2022-10-03T11:37:32.663Z,19.40
2022-10-03T11:40:24.549Z,19.40
2022-10-03T11:43:28.373Z,19.40
2022-10-03T11:46:07.862Z,19.30
2022-10-03T11:49:04.845Z,19.20
2022-10-03T11:51:43.756Z,19.10
2022-10-03T11:54:32.161Z,19.30
2022-10-03T11:57:09.563Z,19.00
2022-10-03T11:59:54.657Z,19.00
2022-10-03T12:02:59.857Z,19.00
2022-10-03T12:05:48.715Z,19.20
2022-10-03T12:08:51.928Z,19.30
2022-10-03T12:11:44.495Z,19.50
2022-10-03T12:14:30.225Z,19.50
2022-10-03T12:17:15.854Z,19.70
2022-10-03T12:20:03.716Z,19.90
2022-10-03T12:23:02.156Z,20.00
2022-10-03T12:25:34.841Z,20.10
2022-10-03T12:28:25.051Z,20.20
2022-10-03T12:31:00.797Z,20.30
2022-10-03T12:33:33.347Z,20.30
2022-10-03T12:36:15.525Z,20.30
2022-10-03T12:38:51.040Z,20.10
2022-10-03T12:41:42.385Z,20.10
2022-10-03T12:45:00.471Z,19.90
2022-10-03T12:47:56.972Z,19.80
2022-10-03T12:50:57.087Z,19.60
2022-10-03T12:53:35.713Z,19.50
2022-10-03T12:56:16.329Z,19.50
2022-10-03T12:58:58.604Z,19.40
2022-10-03T13:01:31.295Z,19.40
2022-10-03T13:04:39.033Z,19.40
2022-10-03T13:07:23.997Z,19.40
2022-10-03T13:10:00.523Z,19.40
2022-10-03T13:12:55.001Z,19.40
2022-10-03T13:15:48.005Z,19.40
2022-10-03T13:18:26.490Z,19.30
2022-10-03T13:21:26.821Z,19.30
2022-10-03T13:24:20.604Z,19.30
2022-10-03T13:27:34.885Z,19.30
2022-10-03T13:30:15.348Z,19.30
2022-10-03T13:32:46.801Z,19.20
2022-10-03T13:36:01.632Z,19.10
2022-10-03T13:38:47.025Z,19.00
2022-10-03T13:41:19.981Z,18.90
2022-10-03T13:44:00.711Z,18.90
2022-10-03T13:46:37.549Z,18.90
2022-10-03T13:49:18.501Z,18.90
2022-10-03T13:51:53.937Z,19.00
2022-10-03T13:54:52.236Z,19.10
2022-10-03T13:57:29.403Z,19.00
2022-10-03T14:00:21.269Z,19.00
2022-10-03T14:03:13.779Z,19.00
2022-10-03T14:06:10.838Z,19.10
2022-10-03T14:08:43.610Z,19.10
2022-10-03T14:11:42.496Z,19.20
2022-10-03T14:14:41.687Z,19.20
2022-10-03T14:17:24.768Z,19.20
2022-10-03T14:20:26.786Z,19.10
2022-10-03T14:23:20.559Z,19.10
2022-10-03T14:26:10.776Z,19.10
2022-10-03T14:28:59.398Z,19.10
2022-10-03T14:31:34.360Z,19.20
2022-10-03T14:34:01.332Z,19.00
2022-10-03T14:36:46.960Z,19.00
2022-10-03T14:39:38.699Z,19.00
2022-10-03T14:42:53.880Z,18.90
2022-10-03T14:45:46.568Z,18.90
2022-10-03T14:48:20.127Z,18.90
2022-10-03T14:50:52.317Z,18.90
2022-10-03T14:53:26.410Z,19.00
2022-10-03T14:56:01.028Z,18.90
2022-10-03T14:58:45.114Z,18.90
2022-10-03T15:01:28.494Z,19.00
2022-10-03T15:04:23.056Z,18.90
2022-10-03T15:06:57.017Z,18.90
2022-10-03T15:09:40.238Z,18.90
2022-10-03T15:12:20.748Z,18.90
2022-10-03T15:14:58.187Z,18.80
2022-10-03T15:17:29.663Z,18.80
2022-10-03T15:19:59.272Z,18.80
2022-10-03T15:22:33.315Z,18.60
2022-10-03T15:25:17.919Z,18.60
2022-10-03T15:27:49.564Z,18.70
2022-10-03T15:30:21.214Z,18.60
2022-10-03T15:32:52.589Z,18.60
2022-10-03T15:35:27.911Z,18.60
2022-10-03T15:38:04.077Z,18.60
2022-10-03T15:40:40.931Z,18.60
2022-10-03T15:43:38.503Z,18.70
2022-10-03T15:46:16.630Z,18.80
2022-10-03T15:48:47.376Z,18.70
2022-10-03T15:51:26.336Z,18.80
2022-10-03T15:53:58.455Z,18.70
2022-10-03T15:56:57.068Z,18.60
2022-10-03T15:59:29.876Z,18.60
2022-10-03T16:01:58.821Z,18.50
2022-10-03T16:04:27.408Z,18.40
2022-10-03T16:07:10.942Z,18.30
2022-10-03T16:09:38.730Z,18.20
2022-10-03T16:12:20.311Z,18.10
2022-10-03T16:14:59.411Z,17.90
2022-10-03T16:17:49.629Z,17.90
2022-10-03T16:20:45.985Z,17.90
2022-10-03T16:23:28.470Z,17.80
2022-10-03T16:25:57.977Z,17.80
2022-10-03T16:28:30.140Z,17.70
2022-10-03T16:31:01.969Z,17.70
2022-10-03T16:34:09.913Z,17.70
2022-10-03T16:36:43.587Z,17.60
2022-10-03T16:39:33.585Z,17.50
2022-10-03T16:42:09.119Z,17.60
2022-10-03T16:44:47.991Z,17.40
2022-10-03T16:47:19.308Z,17.40
2022-10-03T16:50:04.627Z,17.30
2022-10-03T16:52:35.149Z,17.30
2022-10-03T16:55:13.425Z,17.30
2022-10-03T16:57:57.004Z,17.30
2022-10-03T17:00:26.787Z,17.20
2022-10-03T17:02:55.399Z,17.10
2022-10-03T17:05:28.156Z,17.10
2022-10-03T17:08:29.701Z,17.00
2022-10-03T17:10:58.240Z,17.10
2022-10-03T17:13:39.139Z,17.10
2022-10-03T17:16:20.619Z,17.00
2022-10-03T17:19:11.180Z,16.90
2022-10-03T17:21:46.058Z,17.00
2022-10-03T17:24:14.337Z,17.00
2022-10-03T17:26:46.206Z,17.00
2022-10-03T17:29:36.854Z,16.90
2022-10-03T17:32:24.513Z,16.50
2022-10-03T17:35:05.312Z,16.80
2022-10-03T17:38:19.542Z,16.80
2022-10-03T17:41:08.393Z,16.80
2022-10-03T17:43:42.401Z,16.70
2022-10-03T17:46:36.493Z,16.70
2022-10-03T17:49:26.438Z,16.70
2022-10-03T17:51:55.198Z,16.60
2022-10-03T17:54:34.090Z,16.60
2022-10-03T17:57:16.429Z,16.50
2022-10-03T18:00:02.529Z,16.50
2022-10-03T18:02:35.215Z,16.50
2022-10-03T18:05:10.606Z,16.40
2022-10-03T18:07:38.072Z,16.40
2022-10-03T18:10:07.448Z,16.30
2022-10-03T18:12:39.977Z,16.30
2022-10-03T18:15:35.599Z,16.20
2022-10-03T18:18:44.178Z,16.20
2022-10-03T18:21:49.033Z,16.20
2022-10-03T18:24:22.620Z,16.10
2022-10-03T18:27:13.536Z,16.00
2022-10-03T18:29:53.780Z,16.00
2022-10-03T18:32:25.322Z,15.90
2022-10-03T18:35:09.085Z,15.80
2022-10-03T18:37:44.528Z,15.70
2022-10-03T18:40:14.577Z,15.60
2022-10-03T18:42:44.970Z,15.60
2022-10-03T18:45:29.368Z,15.40
2022-10-03T18:48:12.684Z,15.40
2022-10-03T18:50:52.397Z,15.30
2022-10-03T18:53:30.613Z,15.30
2022-10-03T18:56:02.574Z,15.10
2022-10-03T18:58:45.414Z,15.10
2022-10-03T19:01:30.834Z,15.20
2022-10-03T19:04:04.657Z,14.90
2022-10-03T19:06:53.423Z,15.10
2022-10-03T19:09:33.799Z,15.60
2022-10-03T19:12:00.454Z,14.70
2022-10-03T19:15:16.530Z,14.60
2022-10-03T19:17:51.974Z,14.60
2022-10-03T19:20:29.658Z,14.50
2022-10-03T19:23:12.157Z,14.50
2022-10-03T19:25:41.809Z,14.40
2022-10-03T19:28:23.076Z,14.40
2022-10-03T19:31:24.837Z,14.30
2022-10-03T19:33:57.125Z,14.30
2022-10-03T19:36:29.799Z,15.30
2022-10-03T19:38:59.521Z,14.30
2022-10-03T19:41:29.340Z,14.30
2022-10-03T19:44:01.751Z,14.30
2022-10-03T19:46:37.559Z,14.20
2022-10-03T19:49:43.033Z,14.30
2022-10-03T19:52:27.035Z,14.30
2022-10-03T19:55:01.482Z,14.20
2022-10-03T19:57:42.033Z,14.30
2022-10-03T20:00:15.043Z,14.30
2022-10-03T20:02:43.761Z,14.30
2022-10-03T20:05:19.156Z,14.30
2022-10-03T20:07:51.537Z,14.20
2022-10-03T20:10:46.328Z,14.20
2022-10-03T20:13:14.207Z,14.20
2022-10-03T20:15:47.930Z,14.20
2022-10-03T20:18:25.977Z,14.20
2022-10-03T20:20:58.092Z,14.20
2022-10-03T20:23:31.961Z,14.20
2022-10-03T20:26:09.940Z,14.20
2022-10-03T20:29:16.651Z,14.10
2022-10-03T20:31:44.576Z,14.10
2022-10-03T20:34:15.433Z,14.10
2022-10-03T20:36:50.220Z,14.00
2022-10-03T20:39:22.601Z,14.00
2022-10-03T20:42:10.045Z,14.00
2022-10-03T20:45:04.007Z,13.90
2022-10-03T20:48:02.077Z,13.80
2022-10-03T20:50:38.187Z,13.80
2022-10-03T20:53:18.732Z,13.70
2022-10-03T20:55:58.958Z,13.60
2022-10-03T20:58:31.954Z,13.60
2022-10-03T21:01:08.393Z,13.50
2022-10-03T21:03:41.931Z,13.60
2022-10-03T21:06:31.284Z,13.30
2022-10-03T21:09:02.638Z,13.20
2022-10-03T21:11:32.096Z,13.20
2022-10-03T21:14:23.057Z,13.10
2022-10-03T21:16:51.629Z,13.10
2022-10-03T21:19:37.803Z,13.10
2022-10-03T21:22:07.406Z,13.10
2022-10-03T21:25:02.534Z,13.40
2022-10-03T21:27:32.922Z,13.10
2022-10-03T21:30:12.074Z,13.10
2022-10-03T21:33:06.932Z,13.10
2022-10-03T21:35:40.530Z,13.10
2022-10-03T21:38:31.375Z,13.10
2022-10-03T21:41:15.999Z,13.10
2022-10-03T21:43:56.069Z,13.10
2022-10-03T21:46:47.160Z,13.20
2022-10-03T21:49:59.611Z,13.20
2022-10-03T21:52:44.746Z,13.20
2022-10-03T21:55:53.056Z,13.20
2022-10-03T21:58:35.403Z,13.20
2022-10-03T22:01:14.398Z,13.20
2022-10-03T22:03:57.997Z,13.20
2022-10-03T22:06:33.155Z,13.20
2022-10-03T22:09:11.478Z,13.20
2022-10-03T22:11:46.896Z,13.20
2022-10-03T22:14:16.574Z,13.20
2022-10-03T22:16:59.312Z,13.30
2022-10-03T22:19:31.708Z,13.30
2022-10-03T22:22:11.092Z,13.30
2022-10-03T22:24:59.788Z,13.30
2022-10-03T22:27:48.802Z,13.30
2022-10-03T22:30:21.105Z,13.70
2022-10-03T22:33:09.155Z,13.30
2022-10-03T22:35:44.840Z,13.30
2022-10-03T22:38:12.056Z,13.30
2022-10-03T22:40:40.469Z,13.80
2022-10-03T22:43:11.117Z,13.20
2022-10-03T22:45:44.551Z,13.30
2022-10-03T22:48:15.023Z,13.30
2022-10-03T22:50:43.050Z,13.30
2022-10-03T22:53:17.989Z,13.30
2022-10-03T22:55:49.830Z,13.30
2022-10-03T22:58:17.669Z,13.30
2022-10-03T23:00:48.049Z,13.30
2022-10-03T23:03:27.191Z,13.20
2022-10-03T23:06:18.994Z,13.40
2022-10-03T23:08:57.610Z,13.40
2022-10-03T23:11:28.244Z,13.40
2022-10-03T23:13:57.818Z,13.50
2022-10-03T23:16:56.531Z,13.40
2022-10-03T23:19:48.088Z,13.40
2022-10-03T23:22:18.325Z,13.40
2022-10-03T23:25:21.749Z,13.40
2022-10-03T23:28:00.615Z,13.40
2022-10-03T23:30:30.414Z,13.40
2022-10-03T23:33:00.845Z,13.40
2022-10-03T23:35:30.670Z,13.40
2022-10-03T23:37:59.092Z,13.50
2022-10-03T23:40:37.785Z,13.40
2022-10-03T23:43:23.215Z,13.40
2022-10-03T23:45:53.562Z,13.40
2022-10-03T23:48:24.076Z,13.40
2022-10-03T23:50:57.597Z,13.40
2022-10-03T23:53:41.166Z,13.40
2022-10-03T23:56:23.532Z,13.40
2022-10-03T23:59:02.412Z,13.40
